createdAt,value
2022-12-03T00:01:28.067Z,6.22
2022-12-03T00:03:58.740Z,6.28
2022-12-03T00:06:31.462Z,7.10
2022-12-03T00:09:04.696Z,6.70
2022-12-03T00:11:34.264Z,6.68
2022-12-03T00:14:02.888Z,6.90
2022-12-03T00:16:31.233Z,7.07
2022-12-03T00:19:00.841Z,6.63
2022-12-03T00:21:29.112Z,6.88
2022-12-03T00:23:57.268Z,6.72
2022-12-03T00:26:27.214Z,6.90
2022-12-03T00:28:56.113Z,6.80
2022-12-03T00:31:25.846Z,7.43
2022-12-03T00:33:55.937Z,7.13
2022-12-03T00:36:24.562Z,6.57
2022-12-03T00:38:52.990Z,6.97
2022-12-03T00:41:23.503Z,6.85
2022-12-03T00:43:57.434Z,6.95
2022-12-03T00:46:25.959Z,6.78
2022-12-03T00:48:54.783Z,6.88
2022-12-03T00:51:25.760Z,6.95
2022-12-03T00:53:55.308Z,7.00
2022-12-03T00:56:23.768Z,7.05
2022-12-03T00:58:54.765Z,6.65
2022-12-03T01:01:23.709Z,7.22
2022-12-03T01:03:52.493Z,6.57
2022-12-03T01:06:20.899Z,6.93
2022-12-03T01:08:50.501Z,6.93
2022-12-03T01:11:36.961Z,7.63
2022-12-03T01:14:12.731Z,7.20
2022-12-03T01:16:42.029Z,7.20
2022-12-03T01:19:16.231Z,6.80
2022-12-03T01:21:45.624Z,7.10
2022-12-03T01:24:14.824Z,6.70
2022-12-03T01:26:43.280Z,6.93
2022-12-03T01:29:13.192Z,6.75
2022-12-03T01:31:56.062Z,6.75
2022-12-03T01:34:27.611Z,6.30
2022-12-03T01:36:56.015Z,7.28
2022-12-03T01:39:25.129Z,6.70
2022-12-03T01:41:55.510Z,6.47
2022-12-03T01:44:28.353Z,6.80
2022-12-03T01:47:00.713Z,6.90
2022-12-03T01:49:32.875Z,6.47
2022-12-03T01:52:01.800Z,6.65
2022-12-03T01:54:38.915Z,6.85
2022-12-03T01:57:19.646Z,6.80
2022-12-03T01:59:50.536Z,6.50
2022-12-03T02:02:24.603Z,6.72
2022-12-03T02:04:55.873Z,6.60
2022-12-03T02:07:27.713Z,6.90
2022-12-03T02:09:59.938Z,6.60
2022-12-03T02:12:33.833Z,6.50
2022-12-03T02:15:05.240Z,6.88
2022-12-03T02:17:34.287Z,6.57
2022-12-03T02:20:05.196Z,6.88
2022-12-03T02:22:42.228Z,6.65
2022-12-03T02:25:16.322Z,6.88
2022-12-03T02:27:45.868Z,6.80
2022-12-03T02:32:46.041Z,6.53
2022-12-03T02:35:16.250Z,7.13
2022-12-03T02:37:48.713Z,7.00
2022-12-03T02:40:23.211Z,6.90
2022-12-03T02:42:57.014Z,6.88
2022-12-03T02:45:31.288Z,6.93
2022-12-03T02:48:02.304Z,6.90
2022-12-03T02:50:34.014Z,6.43
2022-12-03T02:53:04.743Z,6.90
2022-12-03T02:55:37.357Z,7.13
2022-12-03T02:58:07.449Z,7.32
2022-12-03T03:00:37.680Z,6.90
2022-12-03T03:03:08.973Z,7.05
2022-12-03T03:05:41.576Z,7.18
2022-12-03T03:08:13.041Z,6.97
2022-12-03T03:10:44.844Z,7.07
2022-12-03T03:13:15.880Z,7.10
2022-12-03T03:15:44.755Z,7.32
2022-12-03T03:18:15.520Z,6.75
2022-12-03T03:20:59.265Z,7.17
2022-12-03T03:23:28.867Z,7.00
2022-12-03T03:26:01.620Z,7.22
2022-12-03T03:28:37.783Z,6.18
2022-12-03T03:31:08.705Z,6.90
2022-12-03T03:33:40.346Z,6.97
2022-12-03T03:36:10.906Z,6.97
2022-12-03T03:38:39.961Z,7.53
2022-12-03T03:41:15.081Z,6.70
2022-12-03T03:43:46.538Z,7.20
2022-12-03T03:46:16.038Z,6.85
2022-12-03T03:48:45.068Z,6.40
2022-12-03T03:51:15.215Z,6.90
2022-12-03T03:53:47.959Z,6.50
2022-12-03T03:56:21.015Z,7.30
2022-12-03T03:58:51.302Z,6.90
2022-12-03T04:01:21.311Z,6.80
2022-12-03T04:03:50.793Z,7.00
2022-12-03T04:06:19.614Z,10.23
2022-12-03T04:08:47.769Z,9.73
2022-12-03T04:11:38.951Z,7.40
2022-12-03T04:14:10.135Z,6.80
2022-12-03T04:16:45.593Z,6.80
2022-12-03T04:19:14.022Z,7.47
2022-12-03T04:21:59.912Z,8.43
2022-12-03T04:24:28.888Z,8.75
2022-12-03T04:27:16.134Z,11.02
2022-12-03T04:29:45.950Z,11.82
2022-12-03T04:32:40.984Z,11.55
2022-12-03T04:38:23.830Z,15.50
2022-12-03T04:41:05.018Z,15.27
2022-12-03T04:43:55.841Z,14.65
2022-12-03T04:46:24.044Z,13.85
2022-12-03T04:48:52.141Z,13.52
2022-12-03T04:51:20.198Z,13.32
2022-12-03T04:53:48.327Z,13.57
2022-12-03T04:56:16.366Z,12.82
2022-12-03T04:58:45.991Z,12.52
2022-12-03T05:01:14.278Z,13.05
2022-12-03T05:03:43.006Z,12.80
2022-12-03T05:06:12.111Z,12.57
2022-12-03T05:08:40.196Z,12.25
2022-12-03T05:11:08.446Z,12.18
2022-12-03T05:13:36.978Z,12.02
2022-12-03T05:16:06.720Z,11.93
2022-12-03T05:18:35.151Z,12.07
2022-12-03T05:21:03.397Z,11.23
2022-12-03T05:23:31.555Z,11.30
2022-12-03T05:25:59.699Z,11.07
2022-12-03T05:28:28.153Z,11.23
2022-12-03T05:30:56.693Z,11.20
2022-12-03T05:33:26.346Z,11.27
2022-12-03T05:35:54.559Z,11.30
2022-12-03T05:38:22.691Z,10.20
2022-12-03T05:40:50.865Z,10.57
2022-12-03T05:43:18.254Z,10.93
2022-12-03T05:45:46.529Z,10.52
2022-12-03T05:48:16.837Z,10.80
2022-12-03T05:50:47.199Z,10.43
2022-12-03T05:53:17.146Z,10.50
2022-12-03T05:55:45.381Z,10.43
2022-12-03T05:58:13.815Z,10.30
2022-12-03T06:00:43.068Z,10.05
2022-12-03T06:03:11.649Z,10.60
2022-12-03T06:05:40.046Z,9.63
2022-12-03T06:08:09.828Z,9.68
2022-12-03T06:11:46.514Z,9.98
2022-12-03T06:14:14.663Z,10.05
2022-12-03T06:16:42.810Z,9.90
2022-12-03T06:19:11.107Z,10.10
2022-12-03T06:21:40.854Z,9.77
2022-12-03T06:24:11.379Z,9.38
2022-12-03T06:26:39.431Z,10.32
2022-12-03T06:29:07.772Z,10.23
2022-12-03T06:31:35.886Z,9.82
2022-12-03T06:34:04.068Z,9.70
2022-12-03T06:36:32.195Z,9.57
2022-12-03T06:39:00.327Z,10.13
2022-12-03T06:41:29.807Z,9.38
2022-12-03T06:43:57.892Z,9.57
2022-12-03T06:46:26.078Z,9.90
2022-12-03T06:48:54.406Z,9.60
2022-12-03T06:51:22.562Z,9.63
2022-12-03T06:53:50.652Z,9.70
2022-12-03T06:56:22.333Z,8.93
2022-12-03T06:58:52.363Z,8.50
2022-12-03T07:01:23.728Z,8.35
2022-12-03T07:03:52.285Z,8.93
2022-12-03T07:06:20.536Z,8.80
2022-12-03T07:08:49.790Z,8.43
2022-12-03T07:11:33.494Z,8.32
2022-12-03T07:14:06.380Z,8.07
2022-12-03T07:16:35.089Z,8.00
2022-12-03T07:19:03.347Z,8.02
2022-12-03T07:21:32.216Z,8.27
2022-12-03T07:24:00.267Z,7.90
2022-12-03T07:26:28.586Z,8.40
2022-12-03T07:28:57.014Z,8.38
2022-12-03T07:31:26.668Z,8.40
2022-12-03T07:33:54.971Z,8.05
2022-12-03T07:36:23.411Z,8.07
2022-12-03T07:38:52.062Z,8.50
2022-12-03T07:41:20.476Z,8.63
2022-12-03T07:43:48.875Z,8.23
2022-12-03T07:46:17.217Z,8.50
2022-12-03T07:48:46.683Z,7.90
2022-12-03T07:51:15.604Z,7.90
2022-12-03T07:53:44.095Z,7.63
2022-12-03T07:56:12.238Z,7.70
2022-12-03T07:58:40.443Z,7.60
2022-12-03T08:01:10.429Z,7.60
2022-12-03T08:03:38.567Z,7.93
2022-12-03T08:06:08.461Z,7.70
2022-12-03T08:08:36.802Z,7.13
2022-12-03T08:11:05.986Z,8.15
2022-12-03T08:13:35.633Z,8.57
2022-12-03T08:16:17.064Z,8.63
2022-12-03T08:18:46.123Z,7.88
2022-12-03T08:21:17.562Z,8.85
2022-12-03T08:23:48.652Z,8.45
2022-12-03T08:26:24.184Z,7.75
2022-12-03T08:28:53.274Z,8.52
2022-12-03T08:31:29.319Z,8.45
2022-12-03T08:34:13.096Z,8.23
2022-12-03T08:36:43.554Z,8.05
2022-12-03T08:39:30.889Z,8.50
2022-12-03T08:42:29.101Z,8.52
2022-12-03T08:45:21.521Z,8.15
2022-12-03T08:47:49.830Z,7.97
2022-12-03T08:50:28.415Z,7.97
2022-12-03T08:53:09.273Z,7.70
2022-12-03T08:55:40.022Z,7.30
2022-12-03T08:58:19.274Z,7.70
2022-12-03T09:00:47.488Z,7.35
2022-12-03T09:03:19.761Z,7.65
2022-12-03T09:05:48.130Z,7.35
2022-12-03T09:08:18.038Z,7.38
2022-12-03T09:10:46.710Z,7.40
2022-12-03T09:13:14.923Z,7.78
2022-12-03T09:15:43.137Z,7.38
2022-12-03T09:18:11.230Z,7.22
2022-12-03T09:20:39.231Z,7.18
2022-12-03T09:23:08.107Z,7.60
2022-12-03T09:25:52.708Z,7.65
2022-12-03T09:28:23.451Z,7.93
2022-12-03T09:30:51.627Z,7.78
2022-12-03T09:33:19.859Z,7.40
2022-12-03T09:35:53.168Z,7.70
2022-12-03T09:38:21.699Z,6.80
2022-12-03T09:40:50.145Z,7.80
2022-12-03T09:43:20.454Z,7.10
2022-12-03T09:45:49.436Z,7.10
2022-12-03T09:48:20.065Z,6.63
2022-12-03T09:50:48.906Z,7.22
2022-12-03T09:53:22.020Z,6.88
2022-12-03T09:55:50.985Z,7.05
2022-12-03T09:58:21.203Z,7.00
2022-12-03T10:00:52.394Z,6.88
2022-12-03T10:03:29.505Z,7.13
2022-12-03T10:05:58.939Z,6.97
2022-12-03T10:08:32.153Z,7.22
2022-12-03T10:11:01.460Z,6.80
2022-12-03T10:13:36.015Z,6.80
2022-12-03T10:16:04.513Z,6.35
2022-12-03T10:18:41.440Z,6.45
2022-12-03T10:21:18.364Z,6.95
2022-12-03T10:23:54.944Z,6.70
2022-12-03T10:26:39.008Z,6.43
2022-12-03T10:29:13.811Z,6.38
2022-12-03T10:31:42.091Z,6.38
2022-12-03T10:34:10.740Z,6.25
2022-12-03T10:36:39.177Z,6.65
2022-12-03T10:39:10.943Z,6.00
2022-12-03T10:41:40.194Z,6.22
2022-12-03T10:44:17.036Z,6.07
2022-12-03T10:46:46.545Z,6.05
2022-12-03T10:49:18.711Z,6.10
2022-12-03T10:51:48.793Z,6.28
2022-12-03T10:54:20.536Z,6.32
2022-12-03T10:59:22.105Z,6.30
2022-12-03T11:01:51.066Z,6.10
2022-12-03T11:04:24.625Z,6.32
2022-12-03T11:06:52.911Z,5.60
2022-12-03T11:09:23.467Z,6.35
2022-12-03T11:11:51.998Z,5.85
2022-12-03T11:15:05.626Z,5.65
2022-12-03T11:17:47.884Z,6.00
2022-12-03T11:21:07.790Z,6.20
2022-12-03T11:24:04.818Z,5.97
2022-12-03T11:27:24.715Z,5.82
2022-12-03T11:30:00.969Z,6.00
2022-12-03T11:33:08.901Z,5.90
2022-12-03T11:36:16.121Z,5.97
2022-12-03T11:38:58.349Z,5.75
2022-12-03T11:41:33.053Z,5.82
2022-12-03T11:44:26.359Z,5.80
2022-12-03T11:46:55.252Z,5.43
2022-12-03T11:49:29.875Z,5.72
2022-12-03T11:51:59.937Z,5.75
2022-12-03T11:54:28.479Z,5.50
2022-12-03T11:56:57.227Z,5.80
2022-12-03T11:59:25.498Z,5.88
2022-12-03T12:01:53.667Z,5.70
2022-12-03T12:04:31.039Z,5.72
2022-12-03T12:07:01.150Z,5.50
2022-12-03T12:09:54.071Z,5.70
2022-12-03T12:12:30.680Z,5.90
2022-12-03T12:14:59.836Z,5.43
2022-12-03T12:17:36.728Z,5.75
2022-12-03T12:20:29.049Z,5.35
2022-12-03T12:23:22.067Z,5.55
2022-12-03T12:25:54.180Z,5.68
2022-12-03T12:28:24.238Z,5.50
2022-12-03T12:30:57.050Z,5.32
2022-12-03T12:33:26.681Z,5.40
2022-12-03T12:35:55.058Z,5.35
2022-12-03T12:38:25.217Z,5.43
2022-12-03T12:40:56.647Z,5.50
2022-12-03T12:43:26.744Z,5.22
2022-12-03T12:45:56.642Z,5.72
2022-12-03T12:48:27.731Z,5.68
2022-12-03T12:51:01.360Z,5.25
2022-12-03T12:53:33.034Z,5.70
2022-12-03T12:58:33.515Z,5.18
2022-12-03T13:01:06.139Z,5.43
2022-12-03T13:03:37.720Z,5.60
2022-12-03T13:06:06.443Z,5.75
2022-12-03T13:08:41.018Z,5.35
2022-12-03T13:11:24.174Z,5.20
2022-12-03T13:13:53.244Z,5.40
2022-12-03T13:16:27.533Z,5.20
2022-12-03T13:18:57.795Z,5.40
2022-12-03T13:21:38.410Z,5.15
2022-12-03T13:24:27.787Z,5.20
2022-12-03T13:26:56.338Z,5.00
2022-12-03T13:29:25.031Z,5.20
2022-12-03T13:31:55.620Z,5.22
2022-12-03T13:34:25.737Z,5.07
2022-12-03T13:36:58.181Z,4.68
2022-12-03T13:39:34.466Z,5.28
2022-12-03T13:42:33.924Z,5.30
2022-12-03T13:45:03.943Z,5.13
2022-12-03T13:47:33.503Z,5.13
2022-12-03T13:50:04.852Z,4.90
2022-12-03T13:52:35.773Z,4.70
2022-12-03T13:55:08.721Z,4.95
2022-12-03T13:57:36.978Z,5.18
2022-12-03T14:00:06.095Z,4.70
2022-12-03T14:02:34.604Z,4.82
2022-12-03T14:05:03.232Z,4.90
2022-12-03T14:07:36.136Z,4.93
2022-12-03T14:10:06.691Z,5.00
2022-12-03T14:12:34.747Z,4.80
2022-12-03T14:15:03.535Z,4.90
2022-12-03T14:17:32.070Z,6.18
2022-12-03T14:20:01.730Z,5.18
2022-12-03T14:22:30.838Z,5.05
2022-12-03T14:24:59.199Z,4.20
2022-12-03T14:27:28.704Z,4.95
2022-12-03T14:29:57.407Z,4.78
2022-12-03T14:32:25.676Z,5.47
2022-12-03T14:34:53.787Z,5.20
2022-12-03T14:37:22.356Z,5.20
2022-12-03T14:39:50.584Z,5.57
2022-12-03T14:42:18.765Z,5.22
2022-12-03T14:44:49.900Z,5.20
2022-12-03T14:47:19.838Z,5.03
2022-12-03T14:49:48.085Z,5.30
2022-12-03T14:52:16.355Z,5.20
2022-12-03T14:54:44.676Z,5.60
2022-12-03T14:57:14.244Z,5.10
2022-12-03T14:59:43.077Z,5.13
2022-12-03T15:02:13.988Z,4.85
2022-12-03T15:04:42.735Z,5.07
2022-12-03T15:07:11.112Z,4.97
2022-12-03T15:09:39.363Z,4.63
2022-12-03T15:12:08.448Z,4.65
2022-12-03T15:14:36.778Z,4.50
2022-12-03T15:17:05.135Z,4.82
2022-12-03T15:19:34.740Z,4.43
2022-12-03T15:22:03.069Z,4.57
2022-12-03T15:24:31.221Z,4.80
2022-12-03T15:26:59.330Z,4.50
2022-12-03T15:29:29.016Z,4.50
2022-12-03T15:31:59.353Z,4.45
2022-12-03T15:34:27.671Z,4.97
2022-12-03T15:36:57.278Z,4.45
2022-12-03T15:39:30.620Z,4.55
2022-12-03T15:41:58.908Z,4.53
2022-12-03T15:44:26.939Z,4.40
2022-12-03T15:46:55.055Z,4.43
2022-12-03T15:49:23.432Z,4.10
2022-12-03T15:51:51.550Z,3.95
2022-12-03T15:54:21.238Z,4.47
2022-12-03T15:56:52.797Z,4.20
2022-12-03T15:59:28.050Z,6.55
2022-12-03T16:01:56.475Z,5.53
2022-12-03T16:04:24.631Z,5.28
2022-12-03T16:06:52.973Z,5.60
2022-12-03T16:09:27.163Z,5.10
2022-12-03T16:11:56.013Z,4.65
2022-12-03T16:14:24.156Z,5.15
2022-12-03T16:16:52.561Z,5.00
2022-12-03T16:19:20.985Z,4.45
2022-12-03T16:21:49.273Z,4.55
2022-12-03T16:24:17.480Z,4.70
2022-12-03T16:26:47.002Z,4.80
2022-12-03T16:29:15.602Z,4.40
2022-12-03T16:31:43.857Z,4.68
2022-12-03T16:34:12.143Z,4.78
2022-12-03T16:36:40.345Z,4.60
2022-12-03T16:39:08.440Z,4.88
2022-12-03T16:41:36.578Z,4.88
2022-12-03T16:44:06.538Z,4.90
2022-12-03T16:46:34.781Z,4.75
2022-12-03T16:49:04.158Z,4.70
2022-12-03T16:51:32.320Z,6.20
2022-12-03T16:54:00.340Z,5.05
2022-12-03T16:56:28.842Z,5.40
2022-12-03T16:58:57.155Z,5.22
2022-12-03T17:01:26.847Z,5.00
2022-12-03T17:03:55.308Z,5.07
2022-12-03T17:06:23.503Z,4.38
2022-12-03T17:08:51.620Z,4.80
2022-12-03T17:11:20.271Z,5.13
2022-12-03T17:13:48.266Z,4.95
2022-12-03T17:16:16.373Z,4.90
2022-12-03T17:18:46.135Z,4.90
2022-12-03T17:21:14.650Z,4.53
2022-12-03T17:23:43.077Z,4.70
2022-12-03T17:26:11.562Z,4.60
2022-12-03T17:28:39.690Z,4.80
2022-12-03T17:31:11.872Z,4.75
2022-12-03T17:33:40.662Z,4.80
2022-12-03T17:36:10.867Z,4.65
2022-12-03T17:38:39.615Z,4.07
2022-12-03T17:41:08.484Z,4.82
2022-12-03T17:43:36.907Z,4.57
2022-12-03T17:46:09.464Z,4.35
2022-12-03T17:48:40.559Z,4.57
2022-12-03T17:51:10.199Z,4.47
2022-12-03T17:53:38.252Z,8.38
2022-12-03T17:56:07.830Z,10.65
2022-12-03T17:58:36.208Z,13.82
2022-12-03T18:01:05.719Z,15.52
2022-12-03T18:03:33.981Z,17.08
2022-12-03T18:06:02.158Z,16.92
2022-12-03T18:08:34.448Z,16.52
2022-12-03T18:11:02.559Z,17.85
2022-12-03T18:13:30.789Z,17.90
2022-12-03T18:15:58.998Z,18.13
2022-12-03T18:18:27.075Z,17.90
2022-12-03T18:20:55.535Z,17.27
2022-12-03T18:23:23.875Z,16.92
2022-12-03T18:25:53.404Z,17.00
2022-12-03T18:28:21.842Z,16.52
2022-12-03T18:30:52.787Z,16.60
2022-12-03T18:33:21.460Z,16.30
2022-12-03T18:35:50.264Z,15.85
2022-12-03T18:38:19.471Z,15.15
2022-12-03T18:40:52.140Z,14.50
2022-12-03T18:43:21.641Z,14.48
2022-12-03T18:45:49.759Z,14.43
2022-12-03T18:48:21.306Z,13.60
2022-12-03T18:50:49.652Z,13.88
2022-12-03T18:53:19.489Z,13.70
2022-12-03T18:55:48.981Z,13.18
2022-12-03T18:58:17.222Z,12.73
2022-12-03T19:00:46.695Z,12.02
2022-12-03T19:03:15.242Z,12.00
2022-12-03T19:05:44.118Z,12.20
2022-12-03T19:08:17.887Z,11.75
2022-12-03T19:10:56.295Z,11.48
2022-12-03T19:13:30.146Z,11.73
2022-12-03T19:16:04.007Z,11.13
2022-12-03T19:18:34.346Z,10.90
2022-12-03T19:21:10.590Z,10.95
2022-12-03T19:23:40.811Z,10.70
2022-12-03T19:26:12.429Z,10.75
2022-12-03T19:28:41.539Z,11.07
2022-12-03T19:31:15.058Z,10.27
2022-12-03T19:33:44.866Z,9.82
2022-12-03T19:36:22.474Z,10.27
2022-12-03T19:38:56.891Z,10.35
2022-12-03T19:41:33.048Z,10.43
2022-12-03T19:44:04.022Z,10.20
2022-12-03T19:46:37.476Z,10.00
2022-12-03T19:49:07.264Z,10.15
2022-12-03T19:51:36.199Z,9.18
2022-12-03T19:54:05.365Z,9.60
2022-12-03T19:56:33.515Z,9.13
2022-12-03T19:59:01.598Z,9.05
2022-12-03T20:01:32.636Z,8.93
2022-12-03T20:04:03.814Z,8.88
2022-12-03T20:06:34.908Z,9.32
2022-12-03T20:09:05.874Z,8.77
2022-12-03T20:11:35.235Z,8.98
2022-12-03T20:14:05.746Z,8.65
2022-12-03T20:16:34.225Z,8.43
2022-12-03T20:19:06.212Z,8.60
2022-12-03T20:21:36.668Z,9.02
2022-12-03T20:24:06.493Z,8.60
2022-12-03T20:26:34.943Z,8.50
2022-12-03T20:29:03.023Z,7.78
2022-12-03T20:31:32.752Z,8.00
2022-12-03T20:34:03.855Z,8.55
2022-12-03T20:36:33.346Z,10.38
2022-12-03T20:39:03.860Z,9.57
2022-12-03T20:41:32.191Z,8.80
2022-12-03T20:44:00.426Z,8.82
2022-12-03T20:46:31.160Z,8.38
2022-12-03T20:48:59.736Z,8.70
2022-12-03T20:51:31.644Z,8.65
2022-12-03T20:54:00.739Z,7.95
2022-12-03T20:56:31.337Z,8.13
2022-12-03T20:59:01.245Z,8.53
2022-12-03T21:01:29.745Z,7.80
2022-12-03T21:03:58.639Z,7.45
2022-12-03T21:06:30.108Z,7.85
2022-12-03T21:11:30.859Z,8.00
2022-12-03T21:17:43.783Z,10.85
2022-12-03T21:20:16.617Z,9.65
2022-12-03T21:22:51.897Z,8.13
2022-12-03T21:25:20.138Z,8.05
2022-12-03T21:27:48.233Z,7.90
2022-12-03T21:30:16.818Z,7.68
2022-12-03T21:32:44.979Z,7.75
2022-12-03T21:35:13.459Z,7.60
2022-12-03T21:37:41.754Z,7.40
2022-12-03T21:40:12.164Z,7.55
2022-12-03T21:42:40.177Z,7.38
2022-12-03T21:45:08.867Z,7.20
2022-12-03T21:47:37.752Z,7.00
2022-12-03T21:50:08.845Z,7.13
2022-12-03T21:52:37.209Z,7.60
2022-12-03T21:55:06.518Z,7.10
2022-12-03T21:57:38.165Z,7.40
2022-12-03T22:00:09.695Z,6.70
2022-12-03T22:02:39.958Z,7.45
2022-12-03T22:05:09.131Z,7.07
2022-12-03T22:07:38.758Z,7.30
2022-12-03T22:10:09.090Z,6.53
2022-12-03T22:12:40.872Z,6.38
2022-12-03T22:15:14.890Z,6.47
2022-12-03T22:17:49.424Z,7.05
2022-12-03T22:20:17.805Z,7.30
2022-12-03T22:22:47.023Z,6.90
2022-12-03T22:25:15.262Z,6.85
2022-12-03T22:27:44.859Z,7.22
2022-12-03T22:30:13.452Z,6.90
2022-12-03T22:32:41.517Z,6.47
2022-12-03T22:35:10.215Z,6.65
2022-12-03T22:37:38.528Z,6.65
2022-12-03T22:40:07.964Z,6.55
2022-12-03T22:42:36.128Z,6.53
2022-12-03T22:45:06.699Z,6.90
2022-12-03T22:47:34.969Z,6.82
2022-12-03T22:50:03.462Z,6.70
2022-12-03T22:52:33.225Z,6.78
2022-12-03T22:55:01.398Z,6.47
2022-12-03T22:57:29.474Z,6.45
2022-12-03T22:59:57.743Z,6.35
2022-12-03T23:02:27.499Z,6.50
2022-12-03T23:04:56.854Z,6.70
2022-12-03T23:07:25.085Z,6.20
2022-12-03T23:09:54.118Z,6.60
2022-12-03T23:12:22.444Z,6.47
2022-12-03T23:14:53.906Z,6.25
2022-12-03T23:17:22.183Z,6.35
2022-12-03T23:19:52.103Z,6.28
2022-12-03T23:22:20.249Z,6.63
2022-12-03T23:24:51.330Z,6.70
2022-12-03T23:27:19.640Z,5.70
2022-12-03T23:29:47.814Z,6.32
2022-12-03T23:32:16.952Z,6.30
2022-12-03T23:34:48.669Z,7.15
2022-12-03T23:37:18.402Z,7.20
2022-12-03T23:39:49.007Z,6.70
2022-12-03T23:42:17.199Z,6.20
2022-12-03T23:44:45.362Z,6.60
2022-12-03T23:47:13.546Z,6.47
2022-12-03T23:49:41.999Z,6.22
2022-12-03T23:52:10.202Z,6.43
2022-12-03T23:54:39.660Z,6.45
2022-12-03T23:57:07.898Z,6.00
2022-12-03T23:59:36.157Z,6.40
